Tiempo atmosférico en la estación meteorológica de Málaga, Centro Meteorológico, Málaga (60 m.)



Fecha
DESCASC
Temp. máxima en grados centígrados (hora)
DESCASC
Temp. mínima en grados centígrados (hora)
DESCASC
Temp. media en grados centígrados
DESCASC
Racha de viento máxima en m/sg (hora)
DESCASC
Velocidad máxima media en intervalos de 10 minutos(hora)
DESCASC
Precipitaciones diarias en mm
DESCASC
Precipitaciones de 00:00 a 06:00 en mm
DESCASC
Precipitaciones de 06:00 a 12:00 en mm
DESCASC
Precipitaciones de 12:00 a 18:00 en mm
DESCASC
Precipitaciones de 18:00 a 24:00 en mm
DESCASC
19-01-2020 15.9 (14:30) 10.7 (22:30) 13.3 14.44 (13:10) 5.28 (11:20) 0.6 0.6 0 0 0
18-01-2020 16.6 (14:50) 9.6 (07:40) 13.1 4.44 (02:00) 3.06 (12:10) 0.2 0 0 0.2 0
17-01-2020 20.7 (13:40) 7.7 (06:30) 14.2 9.17 (16:00) 5 (17:10) 0 0 0 0 0
16-01-2020 19.6 (14:00) 8.4 (00:00) 14 4.72 (14:20) 3.06 (14:20) 0 0 0 0 0
15-01-2020 20.9 (14:10) 8.5 (00:00) 14.7 5.28 (18:10) 3.89 (17:50) 0 0 0 0 0
14-01-2020 18.9 (15:10) 7.9 (00:00) 13.4 6.39 (14:20) 3.33 (09:40) 0 0 0 0 0
13-01-2020 18.5 (14:30) 7.2 (00:00) 12.8 4.17 (15:30) 2.78 (17:00) 0 0 0 0 0
12-01-2020 19.6 (14:30) 7.8 (00:00) 13.7 5.83 (15:30) 3.61 (15:30) 0 0 0 0 0
11-01-2020 19.7 (14:30) 6.3 (00:00) 13 6.11 (17:50) 3.89 (17:50) 0 0 0 0 0
10-01-2020 18.4 (15:50) 9.5 (00:00) 13.9 8.61 (15:10) 4.72 (09:10) 0 0 0 0 0
09-01-2020 18 (15:00) 9.6 (00:00) 13.8 4.44 (15:50) 2.78 (15:50) 0 0 0 0 0
08-01-2020 19 (15:50) 5.3 (00:00) 12.2 4.72 (18:00) 3.33 (18:10) 0 0 0 0 0
07-01-2020 18 (14:00) 6.4 (00:00) 12.2 4.72 (13:30) 2.78 (17:40) 0 0 0 0 0
06-01-2020 18.8 (14:20) 8.1 (00:00) 13.4 4.72 (15:30) 2.78 (11:50) 0 0 0 0 0
05-01-2020 18 (15:20) 10.1 (00:00) 14.1 6.94 (00:20) 3.89 (00:20) 0 0 0 0 0
04-01-2020 15.1 (16:10) 8.9 (00:00) 12 7.22 (21:10) 4.17 (21:30) 0 0 0 0 0
03-01-2020 19 (15:20) 7.1 (00:00) 13 5.28 (14:30) 3.33 (14:20) 0 0 0 0 0
02-01-2020 17.1 (16:40) 9.4 (00:00) 13.3 3.33 (16:30) 2.22 (06:40) -- 0 0 -- 0
01-01-2020 19.1 (14:40) 8.7 (00:00) 13.9 4.72 (17:00) 3.33 (16:20) 0 0 0 0 0
31-12-2019 16.9 (15:10) 6.9 (00:00) 11.9 6.67 (15:20) 4.17 (15:20) 0 0 0 0 0
30-12-2019 16.6 (14:10) 10.1 (00:00) 13.4 6.67 (14:30) 4.44 (14:50) 0 0 0 0 0
29-12-2019 17.2 (15:20) 12 (00:00) 14.6 7.22 (13:20) 5.56 (13:30) 0 0 0 0 0
28-12-2019 19.2 (14:40) 8.6 (00:00) 13.9 5 (13:30) 2.78 (21:20) 0 0 0 0 0
27-12-2019 20.6 (13:30) 10.4 (00:00) 15.5 5.56 (16:10) 3.33 (16:10) 0 0 0 0 0
26-12-2019 20.7 (17:20) 10.4 (00:00) 15.6 3.33 (14:50) 1.94 (11:10) 0 0 0 0 0
25-12-2019 25.2 (14:00) 9.6 (00:00) 17.4 4.44 (05:50) 3.33 (14:20) 0 0 0 0 0
24-12-2019 24.6 (15:10) 8.4 (00:00) 16.5 5.28 (02:00) 3.33 (01:30) 0 0 0 0 0
23-12-2019 25.1 (15:20) 14.1 (00:00) 19.6 8.89 (11:00) 6.11 (11:20) 0 0 0 0 0
22-12-2019 22 (15:30) 14.8 (00:00) 18.4 8.89 (04:30) 4.17 (04:40) 0 0 0 0 0

Gráficas

Temp. máximas Temp. mínimas Temp. medias Precipitaciones Rachas de viento máximas Velocidades máximas media en intervalos de 10 minutos

Datos horarios

Fecha y hora oficial Temperatura (ºC) Velocidad del viento (km/h) Dirección del viento Racha (km/h) Dirección de racha Precipitación (mm) Presión (hPa) Tendencia (hPa) Humedad (%)
2020-01-20 23:00:00 9.7 10 Oeste 14 Oeste 0 1009.9 0.4 68
2020-01-20 22:00:00 9.8 5 Noroeste 11 Norte 0 1009.9 0.8 68
2020-01-20 21:00:00 9.7 6 Noroeste 15 Noroeste 0 1009.8 1.1 68
2020-01-20 20:00:00 9.6 11 Noroeste 17 Noroeste 0 1009.5 0.5 68
2020-01-20 19:00:00 9.8 11 Oeste 17 Noroeste 0 1009.1 0.9 66
2020-01-20 18:00:00 9.8 9 Oeste 24 Oeste 0 1008.7 0.4 66
2020-01-20 17:00:00 9.2 14 Sudoeste 24 Oeste 0 1009 -0.1 70
2020-01-20 16:00:00 9.5 15 Oeste 33 Oeste 0 1008.2 -1.4 65
2020-01-20 15:00:00 10.2 19 Oeste 28 Oeste 0 1008.3 -1.3 58
2020-01-20 14:00:00 9.8 15 Oeste 25 Sudoeste 0 1009.1 -0.4 59
2020-01-20 13:00:00 9.3 18 Oeste 30 Oeste 0 1009.6 0 57
2020-01-20 12:00:00 9.3 17 Oeste 28 Oeste 0 1009.6 -0.2 57
2020-01-20 11:00:00 8.7 15 Oeste 24 Oeste 0 1009.5 -0.1 61
2020-01-20 10:00:00 8 14 Oeste 24 Oeste 0 1009.6 0.4 62
2020-01-20 09:00:00 7.8 14 Sudoeste 27 Oeste 0 1009.8 0.2 62
2020-01-20 08:00:00 8.5 16 Sudoeste 22 Sudoeste 0 1009.6 -0.3 62
2020-01-20 07:00:00 8.8 10 Oeste 15 Oeste 0 1009.2 -1 61
2020-01-20 06:00:00 8.6 9 Oeste 21 Sudoeste 0 1009.6 -1.1 62
2020-01-20 05:00:00 8.2 13 Sudoeste 18 Sudoeste 0 1009.9 -1.4 65
2020-01-20 04:00:00 8 13 Sudoeste 19 Oeste 0 1010.2 -1.3 65
2020-01-20 03:00:00 8.5 10 Oeste 15 Oeste 0 1010.7 0.2 65
2020-01-20 02:00:00 9.3 7 Oeste 15 Oeste 0 1011.3 1.2 64
2020-01-20 01:00:00 9.8 7 Sudoeste 22 Sudoeste 0 1011.5 1.5 61
2020-01-20 00:00:00 11.1 10 Sudoeste 23 Oeste 0 1010.5 0.4 54
2020-01-19 23:00:00 10.8 8 Oeste 28 Sudoeste 0 1010.1 -0.3 56
2020-01-19 22:00:00 11.3 8 Oeste 24 Noroeste 0 1010 -0.7 54
2020-01-19 21:00:00 12.1 10 Norte 42 Nordeste 0 1010.1 -0.9 53
2020-01-19 20:00:00 12.1 10 Noroeste 30 Noroeste 0 1010.4 -0.7 54
2020-01-19 19:00:00 12.7 11 Noroeste 27 Norte 0 1010.7 0.3 52
2020-01-19 18:00:00 13.7 8 Noroeste 38 Norte 0 1011 -0.4 50
2020-01-19 17:00:00 14.2 14 Norte 35 Noroeste 0 1011.1 -1.3 47
2020-01-19 16:00:00 14.3 14 Norte 37 Noroeste 0 1010.4 -2.9 50
2020-01-19 15:00:00 14.9 13 Noroeste 34 Noroeste 0 1011.4 -2.5 48
2020-01-19 14:00:00 15.3 12 Norte 52 Norte 0 1012.4 -2.2 49
2020-01-19 13:00:00 15.1 13 Norte 29 Norte 0 1013.3 -0.4 54
2020-01-19 12:00:00 13.4 15 Noroeste 38 Noroeste 0 1013.9 -0.3 60
2020-01-19 11:00:00 13 12 Noroeste 33 Oeste 0 1014.6 0.6 65
2020-01-19 10:00:00 12.3 14 Oeste 31 Noroeste 0 1013.7 -0.5 66
2020-01-19 09:00:00 12 15 Noroeste 39 Oeste 0 1014.2 -0.4 66
2020-01-19 08:00:00 12.6 17 Noroeste 33 Noroeste 0 1014 -1.1 65
2020-01-19 07:00:00 13 16 Noroeste 36 Noroeste 0 1014.2 -1.2 70
2020-01-19 06:00:00 13.2 10 Oeste 18 Oeste 0 1014.6 -1.7 71
2020-01-19 05:00:00 13.7 12 Oeste 27 Noroeste 0 1015.1 -2.1 73
2020-01-19 04:00:00 14.6 12 Noroeste 38 Noroeste 0 1015.4 -3 71
2020-01-19 03:00:00 13.1 12 Noroeste 31 Noroeste 0.4 1016.3 -2.9 92
2020-01-19 02:00:00 12.4 9 Oeste 17 Oeste 0.2 1017.2 -2.6 91
2020-01-19 01:00:00 12.7 5 Noroeste 12 Noroeste 0 1018.4 -2.4 92
2020-01-19 00:00:00 12.6 4 Oeste 7 Oeste 0 1019.2 -2.5 92
2020-01-18 23:00:00 12.9 2 Noroeste 6 Oeste 0 1019.8 -2.3 92
2020-01-18 22:00:00 13.7 0 Calma 5 Noroeste 0 1020.8 -1.8 89
2020-01-18 21:00:00 14.4 2 Noroeste 5 Noroeste 0 1021.7 -1.5 89
2020-01-18 20:00:00 14.9 0 Calma 4 Oeste 0 1022.1 -1.4 86
2020-01-18 19:00:00 15.2 0 Calma 6 Sur 0 1022.6 -1.2 85
2020-01-18 18:00:00 15.4 4 Sur 11 Sudeste 0 1023.2 -1 86
2020-01-18 17:00:00 15.4 6 Este 14 Sudeste 0 1023.5 -1.9 86
2020-01-18 16:00:00 15.5 8 Este 14 Este 0 1023.8 -2.8 83
2020-01-18 15:00:00 16.4 7 Sudeste 12 Sudeste 0 1024.2 -3.2 66
2020-01-18 14:00:00 14.7 4 Norte 9 Norte 0.2 1025.4 -1.8 71
2020-01-18 13:00:00 14.2 6 Oeste 16 Oeste 0 1026.6 -0.2 64
2020-01-18 12:00:00 13.3 7 Sudoeste 13 Oeste 0 1027.4 1.2 73
2020-01-18 11:00:00 12.4 3 Noroeste 12 Oeste 0 1027.2 1.2 71
2020-01-18 10:00:00 10.5 6 Oeste 12 Sudoeste 0 1026.8 1.4 76
2020-01-18 09:00:00 10.4 4 Noroeste 10 Oeste 0 1026.2 0.5 73
2020-01-18 08:00:00 10.2 3 Oeste 10 Oeste 0 1026 0.1 73
2020-01-18 07:00:00 10.4 3 Oeste 8 Noroeste 0 1025.4 -0.9 68
2020-01-18 06:00:00 11.5 5 Noroeste 13 Noroeste 0 1025.7 -0.3 67
2020-01-18 05:00:00 11.4 6 Oeste 12 Norte 0 1025.9 -0.7 64
2020-01-18 04:00:00 11.7 6 Noroeste 13 Noroeste 0 1026.3 -0.4 65
2020-01-18 03:00:00 12.4 6 Norte 12 Noroeste 0 1026 -0.9 67
2020-01-18 02:00:00 12.9 9 Noroeste 16 Noroeste 0 1026.6 0.2 67
2020-01-18 01:00:00 13.7 7 Noroeste 15 Noroeste 0 1026.7 0.3 67
2020-01-18 00:00:00 14 9 Noroeste 17 Noroeste 0 1026.9 0.7 65
2020-01-17 23:00:00 14.3 6 Noroeste 14 Noroeste 0 1026.4 0.2 62
2020-01-17 22:00:00 14.6 5 Noroeste 15 Noroeste 0 1026.4 1.3 60
2020-01-17 21:00:00 15.1 7 Noroeste 12 Noroeste 0 1026.2 1.8 55
2020-01-17 20:00:00 16.3 7 Noroeste 12 Noroeste 0 1026.2 2.2 52
2020-01-17 19:00:00 17.7 8 Noroeste 19 Noroeste 0 1025.1 1.1 50
2020-01-17 18:00:00 18.9 12 Noroeste 27 Oeste 0 1024.4 -0.3 46
2020-01-17 17:00:00 19.6 16 Oeste 31 Noroeste 0 1024 -1.6 46
2020-01-17 16:00:00 20.1 16 Noroeste 33 Noroeste 0 1024 -2.6 47
2020-01-17 15:00:00 19.8 12 Noroeste 30 Noroeste 0 1024.7 -3 48
2020-01-17 14:00:00 20.1 10 Noroeste 30 Noroeste 0 1025.6 -2.1 49
2020-01-17 13:00:00 19.9 9 Oeste 18 Oeste 0 1026.6 -0.7 42
2020-01-17 12:00:00 17.8 11 Sudoeste 19 Noroeste 0 1027.7 0.9 42
2020-01-17 11:00:00 13.7 9 Noroeste 15 Noroeste 0 1027.7 1.3 51
2020-01-17 10:00:00 11.5 9 Oeste 18 Noroeste 0 1027.3 1.5 59
2020-01-17 09:00:00 10.3 10 Oeste 16 Noroeste 0 1026.8 1.4 65
2020-01-17 08:00:00 9.5 6 Oeste 10 Oeste 0 1026.4 0.9 71
2020-01-17 07:00:00 8.6 9 Oeste 15 Oeste 0 1025.8 0.2 73
2020-01-17 06:00:00 9.6 9 Oeste 14 Sudoeste 0 1025.4 -0.1 67
2020-01-17 05:00:00 9.1 6 Noroeste 13 Oeste 0 1025.5 -0.3 75
2020-01-17 04:00:00 10 9 Norte 15 Norte 0 1025.6 -0.2 70
2020-01-17 03:00:00 9.5 7 Noroeste 13 Oeste 0 1025.5 0 73
2020-01-17 02:00:00 9.5 5 Noroeste 10 Oeste 0 1025.8 0.7 76
2020-01-17 01:00:00 10.6 6 Noroeste 11 Noroeste 0 1025.8 1.1 72
2020-01-17 00:00:00 10.4 3 Noroeste 7 Norte 0 1025.5 1.4 74
2020-01-16 23:00:00 10.3 3 Noroeste 8 Noroeste 0 1025.1 1.3 79
2020-01-16 22:00:00 11.3 4 Oeste 6 Oeste 0 1024.7 1.3 77
2020-01-16 21:00:00 12.6 3 Nordeste 9 Nordeste 0 1024.1 1.4 80
2020-01-16 20:00:00 13.7 5 Este 12 Este 0 1023.8 1.3 83
2020-01-16 19:00:00 14.6 8 Este 13 Sudeste 0 1023.4 0.9 74
2020-01-16 18:00:00 16.2 8 Sudeste 13 Este 0 1022.7 -0.1 62
2020-01-16 17:00:00 16.9 9 Sudeste 15 Sudeste 0 1022.5 -0.5 58
2020-01-16 16:00:00 18.3 8 Sudeste 15 Sudeste 0 1022.5 -1.5 50
2020-01-16 15:00:00 18.4 9 Sudeste 17 Sudeste 0 1022.8 -1.9 48
2020-01-16 14:00:00 18.9 8 Sudeste 14 Sur 0 1023 -1.8 41
2020-01-16 13:00:00 18.1 4 Sudoeste 12 Sudoeste 0 1024 -0.1 48
2020-01-16 12:00:00 15.5 8 Sudoeste 12 Oeste 0 1024.7 0.7 57
2020-01-16 11:00:00 12.3 9 Oeste 13 Oeste 0 1024.8 1.4 70
2020-01-16 10:00:00 9.3 8 Noroeste 14 Noroeste 0 1024.1 1.2 80
2020-01-16 09:00:00 8.5 7 Noroeste 14 Noroeste 0 1024 0.9 87
2020-01-16 08:00:00 8.8 8 Noroeste 13 Noroeste 0 1023.4 0.2 85
2020-01-16 07:00:00 9.3 7 Noroeste 13 Noroeste 0 1022.9 -0.7 81
2020-01-16 06:00:00 9.7 5 Noroeste 14 Norte 0 1023.1 -0.5 83
2020-01-16 05:00:00 10.2 5 Norte 12 Noroeste 0 1023.2 -0.5 83
2020-01-16 04:00:00 10.6 7 Noroeste 13 Noroeste 0 1023.6 -0.3 83
2020-01-16 03:00:00 9.7 6 Oeste 12 Oeste 0 1023.6 -0.1 83
2020-01-16 02:00:00 8.9 6 Oeste 9 Oeste 0 1023.7 0.2 83
2020-01-16 01:00:00 10.3 0 Calma 5 Norte 0 1023.9 0.6 83
2020-01-16 00:00:00 10.3 3 Oeste 4 Oeste 0 1023.7 0.7 82
2020-01-15 23:00:00 12.1 0 Calma 5 Nordeste 0 1023.5 1.1 82
2020-01-15 22:00:00 12.9 4 Nordeste 13 Este 0 1023.3 1.6 80
2020-01-15 21:00:00 13.9 8 Este 16 Este 0 1023 1.9 79
2020-01-15 20:00:00 14.6 9 Este 13 Este 0 1022.4 1.8 71
2020-01-15 19:00:00 15.2 10 Este 19 Este 0 1021.7 1.4 73
2020-01-15 18:00:00 16.9 10 Este 19 Este 0 1021.1 0.4 64
2020-01-15 17:00:00 19.7 6 Sudeste 13 Sudeste 0 1020.6 -0.4 46
2020-01-15 16:00:00 20.7 8 Sudeste 12 Sudeste 0 1020.3 -1.8 35
2020-01-15 15:00:00 19.7 6 Sudeste 12 Sudeste 0 1020.7 -1.7 41
2020-01-15 14:00:00 20.8 5 Sur 15 Oeste 0 1021 -1.1 39
2020-01-15 13:00:00 18 11 Oeste 17 Oeste 0 1022.1 0.5 45
2020-01-15 12:00:00 15 13 Sudoeste 18 Sudoeste 0 1022.4 1.5 54
2020-01-15 11:00:00 12.3 10 Oeste 14 Sudoeste 0 1022.1 1.7 63
2020-01-15 10:00:00 9.7 6 Noroeste 14 Noroeste 0 1021.6 1.9 69
2020-01-15 09:00:00 8.6 8 Noroeste 15 Norte 0 1020.9 1.4 71
2020-01-15 08:00:00 8.9 10 Noroeste 15 Noroeste 0 1020.4 1 71
2020-01-15 07:00:00 9.3 10 Noroeste 16 Noroeste 0 1019.7 -0.1 69
2020-01-15 06:00:00 10.5 10 Noroeste 17 Noroeste 0 1019.5 -0.3 67
2020-01-15 05:00:00 10.2 11 Noroeste 17 Noroeste 0 1019.4 -0.6 67
2020-01-15 04:00:00 10.3 9 Noroeste 17 Noroeste 0 1019.8 -0.3 65
2020-01-15 03:00:00 10.6 13 Noroeste 18 Noroeste 0 1019.8 -0.2 63
2020-01-15 02:00:00 11 9 Oeste 17 Oeste 0 1020 0.2 60
2020-01-15 01:00:00 11.1 8 Oeste 17 Oeste 0 1020.1 0.5 59
2020-01-15 00:00:00 11.1 10 Oeste 15 Noroeste 0 1020 0.6 57
2020-01-14 23:00:00 11.4 6 Noroeste 14 Oeste 0 1019.8 0.8 56
2020-01-14 22:00:00 11.6 7 Oeste 11 Noroeste 0 1019.6 1.3 53
2020-01-14 21:00:00 12.5 4 Noroeste 10 Oeste 0 1019.4 1.5 50
2020-01-14 20:00:00 13.4 0 Calma 7 Norte 0 1019 1.5 47
2020-01-14 19:00:00 15 3 Norte 12 Noroeste 0 1018.3 0.8 44
2020-01-14 18:00:00 16.5 5 Noroeste 16 Noroeste 0 1017.9 0 41
2020-01-14 17:00:00 17.4 6 Norte 20 Norte 0 1017.5 -1.2 41
2020-01-14 16:00:00 17.4 10 Oeste 17 Oeste 0 1017.5 -2.6 39
2020-01-14 15:00:00 18.4 12 Oeste 23 Noroeste 0 1017.9 -2.6 39
2020-01-14 14:00:00 18.6 9 Oeste 19 Oeste 0 1018.7 -1.6 41
2020-01-14 13:00:00 14.8 7 Oeste 17 Oeste 0 1020.1 0.6 53
2020-01-14 12:00:00 13.6 9 Oeste 21 Oeste 0 1020.5 1.1 58
2020-01-14 11:00:00 11.2 9 Noroeste 19 Oeste 0 1020.3 1.3 65
2020-01-14 10:00:00 10.2 12 Oeste 18 Oeste 0 1019.5 1 69
2020-01-14 09:00:00 8.8 7 Noroeste 14 Norte 0 1019.4 1.1 76
2020-01-14 08:00:00 8.6 6 Noroeste 15 Noroeste 0 1019 0.4 76
2020-01-14 07:00:00 7.9 6 Noroeste 15 Oeste 0 1018.5 -0.5 77
2020-01-14 06:00:00 8 6 Noroeste 11 Noroeste 0 1018.3 -0.8 76
2020-01-14 05:00:00 9 6 Noroeste 13 Noroeste 0 1018.6 -0.9 74
2020-01-14 04:00:00 8.6 6 Noroeste 11 Noroeste 0 1019 -1.1 77
2020-01-14 03:00:00 8.8 6 Noroeste 13 Noroeste 0 1019.1 -1.4 76
2020-01-14 02:00:00 9.7 5 Noroeste 14 Noroeste 0 1019.5 -0.8 74
2020-01-14 01:00:00 10.2 9 Noroeste 13 Noroeste 0 1020.1 -0.3 77
2020-01-14 00:00:00 10.3 9 Noroeste 15 Noroeste 0 1020.5 -0.2 84
2020-01-13 23:00:00 10 6 Noroeste 9 Noroeste 0 1020.3 -0.5 85
2020-01-13 22:00:00 10.9 4 Oeste 11 Nordeste 0 1020.4 0 82
2020-01-13 21:00:00 12 8 Nordeste 14 Nordeste 0 1020.7 0.6 80
2020-01-13 20:00:00 12.7 7 Este 12 Este 0 1020.8 0.7 77
2020-01-13 19:00:00 13.3 8 Sudeste 15 Sudeste 0 1020.4 0.1 72
2020-01-13 18:00:00 14.9 10 Sudeste 15 Sudeste 0 1020.1 -0.6 61
2020-01-13 17:00:00 16.6 10 Sudeste 15 Sudeste 0 1020.1 -1.9 50
2020-01-13 16:00:00 17.4 6 Sudeste 15 Sudeste 0 1020.3 -2.9 48
2020-01-13 15:00:00 17.5 6 Sur 15 Sur 0 1020.7 -3.1 49
2020-01-13 14:00:00 17.4 3 Sur 12 Sur 0 1022 -2 50
2020-01-13 13:00:00 16.1 2 Oeste 10 Sudoeste 0 1023.2 -0.4 59
2020-01-13 12:00:00 15 8 Sudoeste 13 Oeste 0 1023.8 0.3 64
2020-01-13 11:00:00 12.4 9 Oeste 11 Oeste 0 1024 0.6 77
2020-01-13 10:00:00 9.1 8 Oeste 11 Oeste 0 1023.6 0.3 95
2020-01-13 09:00:00 7.3 5 Oeste 8 Oeste 0 1023.5 0.1 95
2020-01-13 08:00:00 7.7 6 Oeste 10 Oeste 0 1023.4 -0.4 94
2020-01-13 07:00:00 7.8 5 Oeste 11 Oeste 0 1023.3 -0.8 94
2020-01-13 06:00:00 7.6 7 Oeste 11 Oeste 0 1023.4 -0.8 92
2020-01-13 05:00:00 8.2 5 Oeste 8 Oeste 0 1023.8 -0.7 91
2020-01-13 04:00:00 8.6 0 Calma 8 Noroeste 0 1024.1 -1 89
2020-01-13 03:00:00 9.8 5 Noroeste 11 Norte 0 1024.2 -1.1 89
2020-01-13 02:00:00 9.7 4 Noroeste 10 Norte 0 1024.5 -0.6 89
2020-01-13 01:00:00 9.7 6 Oeste 9 Oeste 0 1025.1 0.2 88
2020-01-13 00:00:00 10.5 6 Noroeste 8 Noroeste 0 1025.3 0.4 85
2020-01-12 23:00:00 11.6 5 Oeste 7 Oeste 0 1025.1 0.6 80
2020-01-12 22:00:00 12.7 4 Este 11 Este 0 1024.9 1.4 79
2020-01-12 21:00:00 13.3 6 Este 15 Sudeste 0 1024.9 1.9 77
2020-01-12 20:00:00 13.3 8 Este 20 Sudeste 0 1024.5 1.5 76
2020-01-12 19:00:00 13.8 12 Este 21 Sudeste 0 1023.5 0.7 73
2020-01-12 18:00:00 15.5 9 Este 15 Sudeste 0 1023 -0.2 62
2020-01-12 17:00:00 16.9 10 Sudeste 18 Sudeste 0 1023 -1.2 58
2020-01-12 16:00:00 18 13 Sudeste 21 Sudeste 0 1022.8 -3 55
2020-01-12 15:00:00 19.4 12 Sur 18 Sur 0 1023.2 -3.5 50
2020-01-12 14:00:00 18.7 10 Sudoeste 17 Sudoeste 0 1024.2 -2.7 47
2020-01-12 13:00:00 17.3 10 Oeste 17 Sudoeste 0 1025.8 -0.9 56
2020-01-12 12:00:00 15.4 9 Oeste 16 Oeste 0 1026.7 0.3 65
2020-01-12 11:00:00 12.2 12 Oeste 15 Oeste 0 1026.9 0.7 77
2020-01-12 10:00:00 9.2 5 Oeste 16 Noroeste 0 1026.7 0.6 86
2020-01-12 09:00:00 8.9 6 Noroeste 14 Noroeste 0 1026.4 0.2 87
2020-01-12 08:00:00 9.1 8 Noroeste 14 Noroeste 0 1026.2 -0.3 89
2020-01-12 07:00:00 8.7 5 Oeste 12 Oeste 0 1026.1 -0.5 91
2020-01-12 06:00:00 7.9 5 Oeste 10 Oeste 0 1026.2 -0.2 91
2020-01-12 05:00:00 8.6 4 Oeste 9 Oeste 0 1026.5 -0.1 89
2020-01-12 04:00:00 9.8 4 Noroeste 9 Noroeste 0 1026.6 -0.2 88
2020-01-12 03:00:00 9.7 5 Noroeste 10 Oeste 0 1026.4 -0.4 82
2020-01-12 02:00:00 10.8 5 Oeste 9 Oeste 0 1026.6 0 80
2020-01-12 01:00:00 11.1 6 Oeste 9 Oeste 0 1026.8 0.5 82
2020-01-12 00:00:00 10.9 0 Calma 8 Oeste 0 1026.8 1 82
2020-01-11 23:00:00 11.9 0 Calma -- -- 0 1026.6 1.2 80
2020-01-11 22:00:00 12.8 0 Calma 3 Nordeste 0 1026.3 1.6 79
2020-01-11 21:00:00 13.2 0 Calma 8 Sudeste 0 1025.8 2 74
2020-01-11 20:00:00 13.6 5 Sudeste 12 Sudeste 0 1025.4 2.2 70
2020-01-11 19:00:00 14.5 7 Sudeste 20 Sudeste 0 1024.7 1.9 60
2020-01-11 18:00:00 16.1 12 Sudeste 22 Sudeste 0 1023.8 0.7 53
2020-01-11 17:00:00 18.4 12 Sur 18 Sur 0 1023.2 -0.6 46
2020-01-11 16:00:00 19.3 8 Sur 14 Sur 0 1022.8 -2.2 46
2020-01-11 15:00:00 19 8 Sur 16 Sur 0 1023.1 -2.6 48
2020-01-11 14:00:00 19 6 Sur 13 Sudoeste 0 1023.8 -1.7 44
2020-01-11 13:00:00 17.2 9 Oeste 15 Sudoeste 0 1025 0.4 44
2020-01-11 12:00:00 15.1 9 Sudoeste 15 Oeste 0 1025.7 1.4 50
2020-01-11 11:00:00 11.7 10 Oeste 13 Sudoeste 0 1025.5 1.8 57
2020-01-11 10:00:00 9.2 8 Noroeste 13 Noroeste 0 1024.6 1.1 64
2020-01-11 09:00:00 6.5 5 Oeste 12 Sudoeste 0 1024.3 1 68
2020-01-11 08:00:00 7.5 7 Oeste 12 Oeste 0 1023.7 0.6 63
2020-01-11 07:00:00 8.1 9 Oeste 17 Oeste 0 1023.5 0.5 62
2020-01-11 06:00:00 7.6 10 Oeste 13 Oeste 0 1023.3 0.5 62
2020-01-11 05:00:00 9.3 7 Noroeste 10 Noroeste 0 1023.1 0.5 58
2020-01-11 04:00:00 8.9 9 Oeste 15 Oeste 0 1023 0.3 60
2020-01-11 03:00:00 10.2 6 Noroeste 9 Noroeste 0 1022.8 0.1 56
2020-01-11 02:00:00 10.3 5 Noroeste 9 Noroeste 0 1022.6 0.5 59
2020-01-11 01:00:00 10 4 Oeste 10 Noroeste 0 1022.7 0.9 61
2020-01-11 00:00:00 9.9 5 Oeste 8 Oeste 0 1022.7 2.1 62
2020-01-10 23:00:00 10.8 0 Calma 9 Sudoeste 0 1022.1 2.5 59
2020-01-10 22:00:00 11.7 2 Oeste 7 Sur 0 1021.8 2.9 51
2020-01-10 21:00:00 14 0 Calma 13 Norte 0 1020.6 3.1 44
2020-01-10 20:00:00 15.3 6 Norte 20 Norte 0 1019.6 2.4 43
2020-01-10 19:00:00 15 13 Oeste 22 Oeste 0 1018.9 1.7 52
2020-01-10 18:00:00 17.4 8 Noroeste 26 Noroeste 0 1017.5 0 45
2020-01-10 17:00:00 17.8 10 Norte 27 Noroeste 0 1017.2 -1 46
2020-01-10 16:00:00 18 11 Noroeste 31 Noroeste 0 1017.2 -2.5 46
2020-01-10 15:00:00 18 10 Noroeste 26 Noroeste 0 1017.5 -2.8 46
2020-01-10 14:00:00 17.2 12 Noroeste 27 Oeste 0 1018.2 -2.6 50
2020-01-10 13:00:00 17 12 Noroeste 31 Noroeste 0 1019.7 -0.9 50
2020-01-10 12:00:00 16.3 12 Noroeste 26 Oeste 0 1020.3 0.1 59
2020-01-10 11:00:00 14.4 14 Oeste 25 Noroeste 0 1020.8 0.2 68
2020-01-10 10:00:00 12.4 14 Oeste 24 Noroeste 0 1020.6 0.2 77
2020-01-10 09:00:00 11.5 12 Oeste 22 Noroeste 0 1020.2 0.1 82
2020-01-10 08:00:00 11.1 6 Noroeste 21 Oeste 0 1020.6 0.4 82
2020-01-10 07:00:00 11.1 9 Oeste 23 Noroeste 0 1020.4 -0.2 79
2020-01-10 06:00:00 10.6 11 Noroeste 17 Noroeste 0 1020.1 -1.1 80
2020-01-10 05:00:00 10.8 9 Noroeste 18 Oeste 0 1020.2 -1.4 80
2020-01-10 04:00:00 10.4 12 Oeste 17 Oeste 0 1020.6 -1.6 83
2020-01-10 03:00:00 10.4 5 Noroeste 21 Oeste 0 1021.2 -1.3 82
2020-01-10 02:00:00 10.1 5 Noroeste 13 Noroeste 0 1021.6 -0.4 88
2020-01-10 01:00:00 10 5 Noroeste 11 Oeste 0 1022.2 -0.1 90
2020-01-10 00:00:00 9.7 3 Oeste 6 Oeste 0 1022.5 0.1 88
2020-01-09 23:00:00 10.7 0 Calma 5 Noroeste 0 1022 -0.3 88
2020-01-09 22:00:00 11.1 4 Noroeste 10 Oeste 0 1022.3 0.8 86
2020-01-09 21:00:00 12.7 2 Nordeste 10 Nordeste 0 1022.4 0.9 84
2020-01-09 20:00:00 13.2 5 Nordeste 10 Este 0 1022.3 0.9 80
2020-01-09 19:00:00 14 6 Este 10 Sudeste 0 1021.5 0.2 73
2020-01-09 18:00:00 15.8 8 Sudeste 13 Sudeste 0 1021.5 -0.5 62
2020-01-09 17:00:00 17.1 9 Sur 15 Sur 0 1021.4 -1.7 56
2020-01-09 16:00:00 17.7 9 Sudeste 16 Sur 0 1021.3 -2.8 56
2020-01-09 15:00:00 17.9 7 Sur 13 Este 0 1022 -2.8 54
2020-01-09 14:00:00 16.7 6 Sudeste 12 Sudeste 0 1023.1 -1.5 59
2020-01-09 13:00:00 15.3 4 Sur 9 Sudoeste 0 1024.1 -0.1 65
2020-01-09 12:00:00 14.2 5 Sudoeste 7 Oeste 0 1024.8 1.1 77
2020-01-09 11:00:00 12.5 6 Oeste 8 Oeste 0 1024.6 0.9 85
2020-01-09 10:00:00 11.8 2 Oeste 6 Noroeste 0 1024.2 0.4 86
2020-01-09 09:00:00 11.2 4 Oeste 8 Oeste 0 1023.7 -0.2 86
2020-01-09 08:00:00 11.1 6 Oeste 9 Oeste 0 1023.7 -0.4 86
2020-01-09 07:00:00 11.4 5 Oeste 9 Oeste 0 1023.8 -0.8 86
2020-01-09 06:00:00 11.2 4 Noroeste 9 Noroeste 0 1023.9 -0.9 88
2020-01-09 05:00:00 11.3 4 Noroeste 9 Noroeste 0 1024.1 -0.9 88
2020-01-09 04:00:00 10.9 4 Oeste 7 Oeste 0 1024.6 -0.7 92
2020-01-09 03:00:00 10.7 5 Oeste 9 Oeste 0 1024.8 -0.7 91
2020-01-09 02:00:00 10.8 3 Noroeste 6 Norte 0 1025 -0.2 92
2020-01-09 01:00:00 10.2 3 Oeste 8 Oeste 0 1025.3 -- 91
2020-01-09 00:00:00 11.4 3 Oeste 6 Oeste 0 1025.5 1.4 91
2020-01-08 23:00:00 11.3 3 Oeste 7 Oeste 0 1025.2 1.4 91
2020-01-08 22:00:00 -- 4 Nordeste 8 Este 0 -- -- --
2020-01-08 21:00:00 12.7 5 Este 12 Este 0 1024.1 1.2 89
2020-01-08 20:00:00 12.8 6 Este 15 Sudeste 0 1023.8 1.5 86
2020-01-08 19:00:00 13.3 6 Este 17 Sudeste 0 1023.3 1.2 82
2020-01-08 18:00:00 14.5 11 Sudeste 17 Sudeste 0 1022.9 0.6 73
2020-01-08 17:00:00 16 8 Sudeste 14 Sudeste 0 1022.3 -0.9 65
2020-01-08 16:00:00 17.7 9 Sudeste 14 Sur 0 1022.1 -2.4 58
2020-01-08 15:00:00 18.3 4 Sudoeste 10 Sudoeste 0 1022.3 -3.1 49
2020-01-08 14:00:00 16.9 4 Sudoeste 11 Sudoeste 0 1023.2 -2.1 62
2020-01-08 13:00:00 15.2 0 Calma 8 Sur 0 1024.5 -0.2 74
2020-01-08 12:00:00 10.3 6 Oeste 9 Oeste 0 1025.4 1.4 89
2020-01-08 11:00:00 7.9 4 Oeste 6 Oeste 0 1025.3 1.8 94
2020-01-08 10:00:00 6.4 4 Sudoeste 10 Sudoeste 0 1024.7 1.2 95
2020-01-08 09:00:00 5.8 4 Norte 7 Sudoeste 0 1024 0.5 94
2020-01-08 08:00:00 6.1 4 Oeste 9 Oeste 0 1023.5 -0.5 94
2020-01-08 07:00:00 7.1 6 Oeste 12 Noroeste 0 1023.5 -0.9 92
2020-01-08 06:00:00 7.5 6 Oeste 12 Noroeste 0 1023.5 -1.2 92
2020-01-08 05:00:00 8.2 6 Noroeste 12 Noroeste 0 1024 -0.9 93
2020-01-08 04:00:00 7.8 5 Noroeste 9 Noroeste 0 1024.4 -0.9 95
2020-01-08 03:00:00 7.9 5 Oeste 11 Oeste 0 1024.7 -1 95
2020-01-08 02:00:00 8.1 7 Oeste 11 Oeste 0 1024.9 -1 95
2020-01-08 01:00:00 8.1 4 Oeste 7 Oeste 0 1025.3 -0.5 94
2020-01-08 00:00:00 8.6 5 Oeste 7 Oeste 0 1025.7 0.3 91
2020-01-07 23:00:00 9.7 0 Calma 4 Oeste 0 1025.9 0.9 91
2020-01-07 22:00:00 10.9 0 Calma 4 Sudoeste 0 1025.8 0.6 89
2020-01-07 21:00:00 11.5 2 Sudoeste 5 Norte 0 1025.4 0.6 86
2020-01-07 20:00:00 12.9 0 Calma 9 Sudeste 0 1025 0.4 85
2020-01-07 19:00:00 13.5 5 Sudeste 13 Sudeste 0 1025.2 0.7 78
2020-01-07 18:00:00 15 9 Sudeste 15 Sudeste 0 1024.8 0.1 68
2020-01-07 17:00:00 16.3 9 Sudeste 14 Sudeste 0 1024.6 -0.9 61
2020-01-07 16:00:00 17.5 8 Sudeste 13 Sudeste 0 1024.5 -2.1 54
2020-01-07 15:00:00 17.5 6 Sudeste 16 Sudeste 0 1024.7 -2.9 53
2020-01-07 14:00:00 17.9 5 Sur 17 Sudeste 0 1025.5 -2.3 53
2020-01-07 13:00:00 17.1 4 Sur 9 Sudeste 0 1026.6 -0.4 58
2020-01-07 12:00:00 13.8 5 Sudoeste 8 Sudoeste 0 1027.6 1.1 69
2020-01-07 11:00:00 11.2 4 Oeste 12 Oeste 0 1027.8 1.7 81
2020-01-07 10:00:00 9.1 5 Noroeste 15 Norte 0 1027 0.8 92
2020-01-07 09:00:00 6.5 5 Oeste 14 Noroeste 0 1026.5 0.6 94
2020-01-07 08:00:00 8 6 Noroeste 13 Noroeste 0 1026.1 0.1 93
2020-01-07 07:00:00 8.4 4 Noroeste 14 Oeste 0 1026.2 0 94
2020-01-07 06:00:00 8.1 10 Oeste 15 Oeste 0 1025.9 0 95
2020-01-07 05:00:00 6.8 8 Oeste 13 Oeste 0 1026 -0.1 93
2020-01-07 04:00:00 8.2 5 Noroeste 12 Oeste 0 1026.2 -0.1 94
2020-01-07 03:00:00 8.7 7 Oeste 12 Oeste 0 1025.9 -0.2 94
2020-01-07 02:00:00 7.9 7 Oeste 9 Noroeste 0 1026.1 0.2 92
2020-01-07 01:00:00 8.6 5 Oeste 8 Oeste 0 1026.3 0.7 91
2020-01-07 00:00:00 9.3 0 Calma 8 Oeste 0 1026.1 1.1 89
2020-01-06 23:00:00 9.3 7 Oeste 9 Oeste 0 1025.9 1.4 86
2020-01-06 22:00:00 11 2 Noroeste 4 Sudoeste 0 1025.6 1.6 83
2020-01-06 21:00:00 12 0 Calma 5 Este 0 1025 1.5 80
2020-01-06 20:00:00 12.8 4 Este 7 Sudeste 0 1024.5 1.6 77
2020-01-06 19:00:00 13.6 5 Sudeste 14 Sudeste 0 1024 1.1 71
2020-01-06 18:00:00 15.4 7 Sur 14 Sudeste 0 1023.5 0.2 61
2020-01-06 17:00:00 16.7 8 Sudeste 14 Sudeste 0 1022.9 -1.1 55
2020-01-06 16:00:00 17.1 8 Sudeste 17 Sudeste 0 1022.9 -2.1 53
2020-01-06 15:00:00 17.3 9 Sudeste 14 Sudeste 0 1023.3 -2.4 50
2020-01-06 14:00:00 18.3 6 Sur 12 Sudeste 0 1024 -1.6 50
2020-01-06 13:00:00 16.8 6 Sudoeste 10 Sudoeste 0 1025 -0.2 59
2020-01-06 12:00:00 13.8 6 Oeste 13 Oeste 0 1025.7 1.1 76
2020-01-06 11:00:00 12.1 7 Oeste 11 Oeste 0 1025.6 1.8 82
2020-01-06 10:00:00 9.5 5 Noroeste 12 Noroeste 0 1025.2 1.4 92